Time;durP1;ratioP1;P1;durP2;ratioP2;P2;SDS_P1;SDS_P2;PMS_P1;PMS_P2;Temp;Humidity;BMP_temperature;BMP_pressure;BME280_temperature;BME280_humidity;BME280_pressure;Samples;Min_cycle;Max_cycle;Signal;HPM_P1;HPM_P2
2023/04/05 00:01:28;;;;;;;2.25;1.20;;;;;;;12.56;74.37;100546.56;5052375;28;20124;-88
2023/04/05 00:03:56;;;;;;;1.23;0.80;;;;;;;12.53;74.62;100559.50;5055604;28;20199;-88
2023/04/05 00:06:29;;;;;;;2.03;0.90;;;;;;;12.63;73.83;100556.44;5065249;28;20058;-89
2023/04/05 00:08:58;;;;;;;1.05;0.95;;;;;;;12.67;73.79;100570.59;5072141;28;20032;-88
2023/04/05 00:11:26;;;;;;;1.00;1.00;;;;;;;12.48;73.82;100550.56;5070463;28;20078;-88
2023/04/05 00:13:51;;;;;;;1.20;0.82;;;;;;;12.21;74.18;100528.53;5083728;28;20028;-87
2023/04/05 00:16:18;;;;;;;2.47;0.90;;;;;;;12.61;74.11;100587.84;5047328;28;20162;-87
2023/04/05 00:18:50;;;;;;;;;;;;;;;12.68;73.98;100591.63;5071897;28;20056;-86
2023/04/05 00:21:23;;;;;;;1.92;1.10;;;;;;;12.70;74.17;100589.03;5080192;28;19916;-88
2023/04/05 00:23:52;;;;;;;1.30;0.98;;;;;;;12.41;74.04;100552.03;5068588;28;20028;-88
2023/04/05 00:26:19;;;;;;;3.03;1.40;;;;;;;12.50;75.15;100596.06;5047272;28;20036;-88
2023/04/05 00:28:46;;;;;;;2.15;1.48;;;;;;;12.34;74.73;100577.06;5071653;28;20079;-87
2023/04/05 00:31:12;;;;;;;1.83;1.23;;;;;;;12.33;73.92;100566.53;5088534;28;20024;-87
2023/04/05 00:33:38;;;;;;;1.42;1.20;;;;;;;12.52;73.97;100595.28;5072904;28;20052;-87
2023/04/05 00:36:18;;;;;;;2.05;1.05;;;;;;;12.55;73.63;100603.28;5072399;28;20068;-88
2023/04/05 00:38:45;;;;;;;2.42;0.90;;;;;;;12.50;74.04;100601.31;5067781;28;20021;-87
2023/04/05 00:41:13;;;;;;;1.10;1.00;;;;;;;12.57;73.34;100619.06;5070857;28;20468;-87
2023/04/05 00:43:39;;;;;;;1.00;0.90;;;;;;;12.49;73.71;100582.06;5069979;28;20032;-87
2023/04/05 00:46:05;;;;;;;1.10;1.00;;;;;;;12.43;74.26;100611.50;5071135;28;20482;-88
2023/04/05 00:48:32;;;;;;;2.45;1.00;;;;;;;12.42;74.05;100607.09;5072274;28;20039;-86
2023/04/05 00:50:59;;;;;;;1.10;1.00;;;;;;;12.20;73.96;100580.81;5049329;28;20028;-88
2023/04/05 00:53:28;;;;;;;1.80;1.02;;;;;;;12.47;73.56;100630.00;5075206;28;20025;-88
2023/04/05 00:55:54;;;;;;;1.15;0.85;;;;;;;12.09;73.87;100564.63;5063193;28;20086;-88
2023/04/05 00:58:21;;;;;;;1.13;1.00;;;;;;;12.15;73.29;100569.22;5074074;28;20032;-87
2023/04/05 01:00:58;;;;;;;1.20;1.00;;;;;;;12.30;74.13;100610.91;5071145;28;20059;-87
2023/04/05 01:03:26;;;;;;;0.70;0.70;;;;;;;12.40;73.90;100636.66;5063993;28;20104;-87
2023/04/05 01:06:07;;;;;;;0.77;0.60;;;;;;;12.06;73.60;100579.28;5070689;28;20033;-87
2023/04/05 01:08:57;;;;;;;1.02;0.82;;;;;;;12.28;73.11;100607.34;5048653;28;20028;-87
2023/04/05 01:11:25;;;;;;;1.45;0.88;;;;;;;12.33;74.32;100627.63;5070649;28;20131;-87
2023/04/05 01:13:57;;;;;;;3.80;0.80;;;;;;;12.17;73.47;100605.13;5070613;28;20033;-88
2023/04/05 01:16:22;;;;;;;1.25;0.73;;;;;;;12.36;73.38;100639.97;5063333;28;20024;-88
2023/04/05 01:18:55;;;;;;;0.75;0.75;;;;;;;12.52;73.16;100662.50;5071841;28;20572;-88
2023/04/05 01:21:39;;;;;;;2.38;0.68;;;;;;;12.52;73.55;100660.78;5063443;28;20055;-87
2023/04/05 01:24:40;;;;;;;1.10;0.90;;;;;;;12.46;73.35;100655.25;5070363;28;20090;-87
2023/04/05 01:27:09;;;;;;;2.47;0.70;;;;;;;12.20;73.57;100601.75;5053690;28;20111;-88
2023/04/05 01:29:53;;;;;;;2.45;0.80;;;;;;;12.46;73.54;100665.72;5036137;28;20033;-88
2023/04/05 01:32:49;;;;;;;0.93;0.90;;;;;;;12.37;73.17;100660.97;5070992;28;20405;-87
2023/04/05 01:35:40;;;;;;;2.08;0.77;;;;;;;12.35;73.44;100648.66;5062955;28;20111;-87
2023/04/05 01:38:09;;;;;;;1.05;0.80;;;;;;;12.20;73.61;100652.38;5069080;28;20052;-87
2023/04/05 01:40:36;;;;;;;0.98;0.60;;;;;;;12.30;73.18;100660.66;5055018;28;20555;-88
2023/04/05 01:43:02;;;;;;;1.45;0.80;;;;;;;12.36;73.52;100659.22;5046931;28;20025;-89
2023/04/05 01:45:28;;;;;;;0.57;0.50;;;;;;;12.39;73.22;100674.16;5057849;28;20052;-85
2023/04/05 01:47:55;;;;;;;0.85;0.63;;;;;;;12.31;73.22;100665.06;5057997;28;20156;-87
2023/04/05 01:50:20;;;;;;;0.85;0.73;;;;;;;12.18;72.92;100651.41;5068940;28;20052;-87
2023/04/05 01:52:46;;;;;;;0.60;0.60;;;;;;;12.36;73.49;100679.22;5062882;28;20059;-87
2023/04/05 01:55:11;;;;;;;0.63;0.55;;;;;;;12.08;73.06;100641.34;5053027;28;20551;-87
2023/04/05 01:57:37;;;;;;;2.00;0.80;;;;;;;12.20;73.17;100675.03;5070226;28;20024;-88
2023/04/05 02:00:04;;;;;;;0.50;0.50;;;;;;;12.29;73.63;100690.28;5052978;28;20028;-88
2023/04/05 02:02:29;;;;;;;;;;;;;;;12.26;73.34;100688.41;5069084;28;20024;-88
2023/04/05 02:04:55;;;;;;;0.85;0.77;;;;;;;12.26;73.45;100682.28;5053705;28;19999;-88
2023/04/05 02:07:20;;;;;;;0.95;0.52;;;;;;;12.22;73.47;100681.25;5070069;28;20555;-89
2023/04/05 02:09:46;;;;;;;0.52;0.50;;;;;;;12.19;73.84;100682.00;5071230;28;20043;-88
2023/04/05 02:12:11;;;;;;;0.50;0.50;;;;;;;12.01;73.28;100640.16;5052176;28;20027;-88
2023/04/05 02:14:37;;;;;;;2.75;0.50;;;;;;;12.10;73.61;100663.25;5070072;28;20029;-88
2023/04/05 02:17:03;;;;;;;0.50;0.50;;;;;;;12.13;73.18;100666.00;5069931;28;20025;-88
2023/04/05 02:19:36;;;;;;;0.52;0.52;;;;;;;12.19;73.11;100674.16;5069957;28;20028;-89
2023/04/05 02:22:02;;;;;;;2.35;0.60;;;;;;;12.12;73.73;100663.31;5057420;28;20047;-88
2023/04/05 02:24:27;;;;;;;0.52;0.40;;;;;;;12.17;73.18;100677.50;5069914;28;20028;-88
2023/04/05 02:26:54;;;;;;;0.93;0.40;;;;;;;12.08;73.55;100669.22;5071163;28;20016;-89
2023/04/05 02:29:19;;;;;;;1.58;0.40;;;;;;;12.24;73.06;100692.69;5069442;28;20028;-87
2023/04/05 02:31:45;;;;;;;0.50;0.50;;;;;;;11.98;72.92;100652.19;5052354;28;20012;-86
2023/04/05 02:34:10;;;;;;;0.95;0.45;;;;;;;12.10;73.24;100693.75;5069153;28;20026;-87
2023/04/05 02:36:36;;;;;;;0.40;0.40;;;;;;;12.14;73.50;100709.66;5051306;28;20418;-89
2023/04/05 02:39:02;;;;;;;0.38;0.38;;;;;;;11.86;73.23;100656.84;5066963;28;20067;-87
2023/04/05 02:41:28;;;;;;;0.55;0.43;;;;;;;11.85;72.93;100647.19;5068792;28;20217;-88
2023/04/05 02:43:54;;;;;;;1.55;0.40;;;;;;;12.00;73.26;100689.81;5069691;28;20490;-87
2023/04/05 02:46:20;;;;;;;0.75;0.40;;;;;;;12.07;73.68;100696.25;5062286;28;20111;-88
2023/04/05 02:48:45;;;;;;;0.75;0.52;;;;;;;12.13;73.55;100720.09;5069463;28;20059;-89
2023/04/05 02:51:11;;;;;;;0.30;0.30;;;;;;;11.76;73.44;100653.78;5070484;28;20067;-88
2023/04/05 02:53:36;;;;;;;0.88;0.40;;;;;;;12.04;73.89;100709.16;5064627;28;20085;-89
2023/04/05 02:56:02;;;;;;;0.73;0.35;;;;;;;12.06;73.02;100715.38;5069631;28;20016;-88
2023/04/05 02:58:27;;;;;;;0.55;0.55;;;;;;;12.00;73.11;100705.50;5064148;28;20078;-88
2023/04/05 03:00:54;;;;;;;0.60;0.60;;;;;;;12.12;73.13;100732.25;5070390;28;20016;-88
2023/04/05 03:03:21;;;;;;;0.47;0.47;;;;;;;11.98;73.16;100713.31;5046427;28;20461;-89
2023/04/05 03:05:47;;;;;;;;;;;;;;;12.20;73.47;100759.69;5069756;28;20056;-88
2023/04/05 03:08:17;;;;;;;1.10;0.35;;;;;;;12.12;74.15;100765.41;5078053;28;19908;-89
2023/04/05 03:10:46;;;;;;;2.28;0.40;;;;;;;12.15;73.71;100755.97;5078750;28;20028;-88
2023/04/05 03:13:12;;;;;;;0.60;0.60;;;;;;;11.98;73.49;100731.63;5069471;28;20020;-87
2023/04/05 03:15:38;;;;;;;0.40;0.40;;;;;;;11.87;73.54;100721.41;5069137;28;20024;-87
2023/04/05 03:18:04;;;;;;;0.40;0.40;;;;;;;12.07;73.77;100762.56;5069231;28;20038;-86
2023/04/05 03:20:29;;;;;;;1.75;0.57;;;;;;;12.02;73.59;100748.34;5063061;28;20035;-87
2023/04/05 03:22:55;;;;;;;0.35;0.35;;;;;;;11.97;73.28;100742.91;5069072;28;20020;-86
2023/04/05 03:25:20;;;;;;;0.40;0.40;;;;;;;11.91;73.89;100740.00;5074165;28;20406;-87
2023/04/05 03:27:46;;;;;;;0.52;0.40;;;;;;;11.94;73.65;100758.47;5069100;28;20060;-87
2023/04/05 03:30:12;;;;;;;0.40;0.40;;;;;;;12.10;73.41;100781.03;5064696;28;20035;-88
2023/04/05 03:32:37;;;;;;;0.45;0.45;;;;;;;11.60;73.36;100708.81;5073823;28;20017;-89
2023/04/05 03:35:03;;;;;;;1.70;0.40;;;;;;;11.77;73.54;100744.53;5088771;28;20069;-88
2023/04/05 03:37:29;;;;;;;0.32;0.32;;;;;;;11.95;73.39;100764.59;5073492;28;20013;-88
2023/04/05 03:39:55;;;;;;;0.30;0.30;;;;;;;12.08;73.52;100782.66;5068576;28;20041;-89
2023/04/05 03:42:21;;;;;;;;;;;;;;;12.11;73.68;100788.06;5052946;28;20513;-89
2023/04/05 03:44:51;;;;;;;0.30;0.30;;;;;;;11.72;73.83;100719.84;5060425;28;19913;-87
2023/04/05 03:47:16;;;;;;;1.75;0.47;;;;;;;11.76;74.51;100755.81;5031891;28;20490;-87
2023/04/05 03:49:42;;;;;;;0.50;0.50;;;;;;;11.91;74.07;100763.53;5069596;28;20036;-88
2023/04/05 03:52:08;;;;;;;0.50;0.50;;;;;;;12.01;74.00;100784.09;5038480;28;20035;-87
2023/04/05 03:54:33;;;;;;;;;;;;;;;12.05;74.16;100798.25;5052672;28;20033;-88
2023/04/05 03:57:01;;;;;;;0.85;0.50;;;;;;;11.86;73.81;100769.38;5070262;28;19912;-88
2023/04/05 03:59:26;;;;;;;0.50;0.50;;;;;;;11.95;74.28;100804.75;5073595;28;20489;-88
2023/04/05 04:01:53;;;;;;;1.95;0.47;;;;;;;11.89;74.13;100795.69;5053031;28;20108;-87
2023/04/05 04:04:19;;;;;;;0.52;0.40;;;;;;;11.77;74.49;100772.44;5073469;28;20119;-88
2023/04/05 04:06:45;;;;;;;0.40;0.40;;;;;;;11.73;73.93;100765.25;5052044;28;20079;-88
2023/04/05 04:09:11;;;;;;;0.63;0.40;;;;;;;11.68;73.54;100744.06;5055581;28;20032;-89
2023/04/05 04:11:37;;;;;;;2.58;0.63;;;;;;;11.75;73.94;100772.34;5072071;28;20020;-89
2023/04/05 04:14:03;;;;;;;0.63;0.63;;;;;;;11.65;73.60;100762.25;5072677;28;20056;-87
2023/04/05 04:16:29;;;;;;;0.50;0.50;;;;;;;11.81;73.67;100790.97;5051572;28;20058;-88
2023/04/05 04:18:54;;;;;;;0.57;0.57;;;;;;;11.85;73.30;100814.66;5070909;28;20486;-88
2023/04/05 04:21:23;;;;;;;1.55;0.50;;;;;;;11.70;74.00;100796.47;5051662;28;20028;-88
2023/04/05 04:23:50;;;;;;;0.80;0.50;;;;;;;11.74;73.64;100795.81;5070116;28;20040;-88
2023/04/05 04:26:27;;;;;;;1.42;0.40;;;;;;;11.82;73.74;100824.13;5051409;28;20063;-87
2023/04/05 04:28:53;;;;;;;;;;;;;;;11.85;73.69;100822.50;5070233;28;20085;-88
2023/04/05 04:31:20;;;;;;;0.60;0.40;;;;;;;11.42;73.42;100761.09;5064808;28;20453;-87
2023/04/05 04:33:48;;;;;;;1.27;0.50;;;;;;;11.61;73.69;100795.19;5056357;28;20109;-87
2023/04/05 04:36:14;;;;;;;1.23;0.40;;;;;;;11.31;73.71;100754.44;5037206;28;20028;-86
2023/04/05 04:38:43;;;;;;;0.50;0.50;;;;;;;11.68;73.49;100809.47;5048237;28;20100;-87
2023/04/05 04:41:12;;;;;;;0.40;0.40;;;;;;;11.59;75.00;100833.44;5071799;28;20421;-87
2023/04/05 04:43:47;;;;;;;0.60;0.60;;;;;;;11.51;73.54;100790.31;5078119;28;20111;-87
2023/04/05 04:46:17;;;;;;;0.38;0.38;;;;;;;11.52;73.73;100788.63;5053877;28;20059;-88
2023/04/05 04:48:43;;;;;;;0.40;0.40;;;;;;;11.32;74.28;100788.47;5058135;28;20085;-87
2023/04/05 04:51:09;;;;;;;0.47;0.47;;;;;;;11.19;74.22;100778.22;5078242;28;20032;-85
2023/04/05 04:53:34;;;;;;;0.50;0.50;;;;;;;11.63;74.22;100846.69;5091892;28;20047;-87
2023/04/05 04:56:00;;;;;;;0.50;0.50;;;;;;;11.12;74.51;100750.88;5069747;28;20107;-87
2023/04/05 04:58:26;;;;;;;0.60;0.60;;;;;;;11.46;74.08;100820.56;5070099;28;20052;-87
2023/04/05 05:00:52;;;;;;;0.90;0.50;;;;;;;11.41;73.79;100816.84;5068721;28;20040;-88
2023/04/05 05:03:17;;;;;;;3.85;0.60;;;;;;;11.59;73.74;100848.25;5050175;28;20403;-85
2023/04/05 05:05:45;;;;;;;1.05;0.60;;;;;;;11.61;73.87;100863.19;5054958;28;20551;-85
2023/04/05 05:08:11;;;;;;;0.90;0.80;;;;;;;11.59;73.90;100848.25;5052816;28;20122;-85
2023/04/05 05:10:37;;;;;;;2.50;0.80;;;;;;;11.43;74.35;100843.03;5065284;28;20032;-85
2023/04/05 05:13:02;;;;;;;0.80;0.70;;;;;;;11.27;74.47;100805.66;5064455;28;20035;-85
2023/04/05 05:15:28;;;;;;;1.00;0.90;;;;;;;11.26;74.02;100811.72;5057034;28;20032;-85
2023/04/05 05:17:54;;;;;;;0.70;0.70;;;;;;;11.42;74.13;100857.84;5067666;28;20429;-87
2023/04/05 05:20:23;;;;;;;1.73;0.95;;;;;;;11.45;74.52;100851.84;5049283;28;20685;-87
2023/04/05 05:22:50;;;;;;;0.98;0.80;;;;;;;11.00;74.58;100779.88;5064094;28;20090;-85
2023/04/05 05:25:15;;;;;;;0.65;0.65;;;;;;;11.27;73.93;100830.91;5064749;28;20051;-85
2023/04/05 05:27:41;;;;;;;1.00;0.90;;;;;;;11.37;74.38;100847.16;5065717;28;20479;-85
2023/04/05 05:30:08;;;;;;;0.90;0.80;;;;;;;11.27;73.90;100816.09;5050410;28;20474;-86
2023/04/05 05:32:33;;;;;;;;;;;;;;;11.41;74.24;100876.97;5070605;28;20024;-86
2023/04/05 05:34:59;;;;;;;0.85;0.85;;;;;;;11.33;74.02;100845.19;5070444;28;20270;-85
2023/04/05 05:37:31;;;;;;;0.90;0.90;;;;;;;11.31;74.45;100862.50;5069262;28;20043;-86
2023/04/05 05:39:57;;;;;;;0.95;0.80;;;;;;;11.09;74.28;100822.97;5047864;28;20043;-85
2023/04/05 05:42:28;;;;;;;1.38;1.10;;;;;;;11.13;74.49;100835.41;5059861;28;20085;-84
2023/04/05 05:44:54;;;;;;;2.88;1.40;;;;;;;11.11;74.36;100823.97;5077577;28;20421;-84
2023/04/05 05:47:19;;;;;;;2.25;1.60;;;;;;;11.41;73.94;100872.63;5070563;28;20040;-84
2023/04/05 05:49:45;;;;;;;5.35;1.98;;;;;;;11.48;73.48;100902.63;5069571;28;20036;-84
2023/04/05 05:52:10;;;;;;;2.28;1.45;;;;;;;11.07;74.10;100822.00;5092579;28;20162;-85
2023/04/05 05:54:42;;;;;;;2.30;1.30;;;;;;;11.36;74.60;100870.59;5067927;28;20040;-84
2023/04/05 05:57:14;;;;;;;2.30;1.35;;;;;;;11.40;74.30;100878.66;5087319;28;20027;-84
2023/04/05 05:59:55;;;;;;;1.70;1.42;;;;;;;11.53;74.88;100900.22;5066225;28;20490;-84
2023/04/05 06:02:21;;;;;;;2.55;1.50;;;;;;;11.50;74.56;100914.06;5080247;28;20118;-85
2023/04/05 06:04:48;;;;;;;3.53;1.40;;;;;;;11.54;74.50;100916.00;5069731;28;20582;-85
2023/04/05 06:07:16;;;;;;;1.73;1.42;;;;;;;10.88;74.22;100810.59;5059358;28;20177;-86
2023/04/05 06:09:44;;;;;;;1.80;1.50;;;;;;;11.51;74.96;100928.03;5067772;28;20060;-85
2023/04/05 06:12:10;;;;;;;1.65;1.27;;;;;;;11.53;74.81;100936.84;5070467;28;20028;-85
2023/04/05 06:14:35;;;;;;;;;;;;;;;11.56;74.82;100940.53;5090372;28;20027;-88
2023/04/05 06:17:01;;;;;;;1.52;1.30;;;;;;;11.54;75.06;100946.50;5072034;28;20405;-89
2023/04/05 06:19:27;;;;;;;3.38;1.60;;;;;;;10.96;74.38;100853.72;5053305;28;20031;-88
2023/04/05 06:21:59;;;;;;;1.88;1.27;;;;;;;10.89;74.91;100842.84;5056090;28;20028;-90
2023/04/05 06:24:39;;;;;;;2.22;1.80;;;;;;;11.41;74.19;100932.78;5073659;28;20032;-89
2023/04/05 06:27:05;;;;;;;1.75;1.30;;;;;;;11.34;74.39;100920.16;5072484;28;20100;-89
2023/04/05 06:29:32;;;;;;;1.92;1.38;;;;;;;11.06;74.77;100882.94;5063634;28;20044;-89
2023/04/05 06:32:01;;;;;;;1.52;1.30;;;;;;;11.01;74.34;100874.84;5070738;28;20119;-87
2023/04/05 06:34:26;;;;;;;1.60;1.50;;;;;;;11.53;74.89;100976.97;5065380;28;20032;-86
2023/04/05 06:36:52;;;;;;;1.95;1.55;;;;;;;11.23;74.57;100918.72;5089720;28;20024;-86
2023/04/05 06:39:18;;;;;;;1.52;1.15;;;;;;;11.41;74.84;100955.41;5071569;28;20035;-87
2023/04/05 06:41:44;;;;;;;3.08;1.40;;;;;;;11.47;74.80;100976.66;5090313;28;20107;-87
2023/04/05 06:44:10;;;;;;;3.47;1.40;;;;;;;11.04;74.97;100903.75;5068793;28;20044;-87
2023/04/05 06:46:36;;;;;;;1.67;1.20;;;;;;;11.24;74.87;100935.28;5055104;28;20027;-86
2023/04/05 06:49:02;;;;;;;1.20;1.10;;;;;;;11.45;75.03;100985.22;5089598;28;20049;-85
2023/04/05 06:51:28;;;;;;;2.70;1.55;;;;;;;11.33;75.27;100968.06;5060871;28;20063;-85
2023/04/05 06:53:54;;;;;;;;;;;;;;;11.48;74.70;100993.25;5085524;28;20029;-85
2023/04/05 06:56:20;;;;;;;4.85;2.30;;;;;;;11.35;74.73;100976.91;5089500;28;20433;-86
2023/04/05 06:58:48;;;;;;;2.38;1.17;;;;;;;11.24;74.57;100961.44;5091372;28;20554;-85
2023/04/05 07:01:14;;;;;;;2.17;1.52;;;;;;;11.16;75.21;100954.09;5075700;28;20036;-85
2023/04/05 07:03:40;;;;;;;2.67;1.40;;;;;;;11.31;74.75;100966.19;5093761;28;20026;-87
2023/04/05 07:06:05;;;;;;;2.13;1.27;;;;;;;11.25;75.05;100966.75;5093112;28;20489;-85
2023/04/05 07:08:31;;;;;;;1.40;1.30;;;;;;;11.25;75.38;100966.75;5075892;28;20020;-85
2023/04/05 07:10:58;;;;;;;2.05;1.35;;;;;;;11.39;75.24;100994.53;5091044;28;20067;-87
2023/04/05 07:13:24;;;;;;;1.65;1.38;;;;;;;11.29;74.88;100976.56;5075750;28;20028;-86
2023/04/05 07:15:50;;;;;;;3.95;1.50;;;;;;;11.45;75.57;101007.06;5075303;28;20032;-86
2023/04/05 07:18:16;;;;;;;2.70;1.65;;;;;;;11.54;74.67;101022.34;5075533;28;20020;-86
2023/04/05 07:20:45;;;;;;;4.47;1.73;;;;;;;11.40;74.68;100998.06;5075441;28;20046;-86
2023/04/05 07:23:11;;;;;;;2.38;1.33;;;;;;;11.55;74.79;101022.41;5058988;28;20036;-86
2023/04/05 07:25:39;;;;;;;2.80;1.52;;;;;;;11.47;74.92;101009.75;5071853;28;20085;-86
2023/04/05 07:28:04;;;;;;;1.90;1.38;;;;;;;11.56;74.49;101024.22;5086883;28;20032;-86
2023/04/05 07:30:30;;;;;;;2.83;1.38;;;;;;;11.16;74.89;100951.47;5062130;28;20027;-86
2023/04/05 07:32:57;;;;;;;4.18;1.20;;;;;;;11.43;74.92;101007.78;5092676;28;20093;-87
2023/04/05 07:35:22;;;;;;;;;;;;;;;11.59;74.71;101040.06;5092296;28;20027;-87
2023/04/05 07:37:48;;;;;;;3.13;1.20;;;;;;;11.56;74.68;101044.25;5092255;28;20133;-86
2023/04/05 07:40:14;;;;;;;5.25;1.45;;;;;;;11.56;75.08;101045.16;5093105;28;20102;-85
2023/04/05 07:42:39;;;;;;;1.65;1.13;;;;;;;11.17;75.31;100966.31;5074671;28;20028;-86
2023/04/05 07:45:05;;;;;;;2.45;1.50;;;;;;;11.54;75.37;101045.88;5089580;28;20051;-85
2023/04/05 07:47:34;;;;;;;3.67;1.90;;;;;;;11.48;75.12;101017.69;5076620;28;20107;-85
2023/04/05 07:50:00;;;;;;;1.52;1.10;;;;;;;11.27;75.40;100992.97;5093139;28;20023;-85
2023/04/05 07:52:31;;;;;;;1.85;1.55;;;;;;;11.52;75.80;101043.19;5054096;28;20020;-85
2023/04/05 07:54:57;;;;;;;1.95;1.27;;;;;;;11.58;75.53;101046.13;5083664;28;20032;-85
2023/04/05 07:57:24;;;;;;;2.83;1.20;;;;;;;10.96;75.61;100939.00;5069867;28;20027;-85
2023/04/05 07:59:51;;;;;;;3.00;1.48;;;;;;;11.36;76.20;101019.63;5093766;28;20806;-84
2023/04/05 08:02:17;;;;;;;3.33;1.55;;;;;;;11.23;75.16;100997.13;5093100;28;20067;-85
2023/04/05 08:04:42;;;;;;;2.72;1.23;;;;;;;11.24;76.42;101000.63;5093037;28;20065;-84
2023/04/05 08:07:08;;;;;;;2.05;1.20;;;;;;;11.51;75.92;101046.59;5074833;28;20031;-85
2023/04/05 08:09:35;;;;;;;1.80;1.30;;;;;;;11.57;76.69;101057.41;5057536;28;20118;-85
2023/04/05 08:12:01;;;;;;;2.50;1.45;;;;;;;11.17;77.22;100983.72;5074504;28;20028;-85
2023/04/05 08:14:27;;;;;;;1.65;1.27;;;;;;;11.05;76.40;100967.34;5090895;28;20508;-85
2023/04/05 08:17:11;;;;;;;1.65;1.13;;;;;;;11.53;77.37;101060.66;5085596;28;20033;-86
2023/04/05 08:19:37;;;;;;;3.10;1.83;;;;;;;11.43;77.40;101047.91;5074624;28;20055;-87
2023/04/05 08:22:02;;;;;;;2.22;1.25;;;;;;;11.45;76.84;101040.13;5091642;28;20485;-87
2023/04/05 08:24:28;;;;;;;2.42;1.48;;;;;;;11.40;76.50;101026.81;5091337;28;20024;-86
2023/04/05 08:26:55;;;;;;;1.88;1.40;;;;;;;11.40;76.85;101019.88;5091907;28;20606;-87
2023/04/05 08:29:20;;;;;;;3.20;1.58;;;;;;;11.59;77.04;101052.25;5088205;28;20555;-85
2023/04/05 08:31:46;;;;;;;2.60;1.58;;;;;;;11.16;77.18;100982.84;5084033;28;20028;-85
2023/04/05 08:34:12;;;;;;;1.88;1.40;;;;;;;11.18;77.70;100988.16;5056564;28;20429;-85
2023/04/05 08:36:37;;;;;;;3.63;1.92;;;;;;;11.13;77.87;100982.69;5087653;28;20032;-86
2023/04/05 08:39:03;;;;;;;3.55;1.70;;;;;;;11.43;78.32;101041.78;5092084;28;20069;-86
2023/04/05 08:41:36;;;;;;;2.88;1.52;;;;;;;11.08;77.70;100973.66;5082455;28;20040;-86
2023/04/05 08:44:04;;;;;;;5.72;1.65;;;;;;;11.38;78.28;101029.34;5072071;28;20033;-85
2023/04/05 08:46:31;;;;;;;4.20;2.00;;;;;;;11.39;78.68;101027.66;5094867;28;20028;-86
2023/04/05 08:48:57;;;;;;;2.80;1.88;;;;;;;11.56;78.38;101060.84;5078326;28;20035;-86
2023/04/05 08:51:24;;;;;;;3.05;1.90;;;;;;;11.58;78.24;101059.22;5073959;28;20020;-86
2023/04/05 08:53:52;;;;;;;6.40;1.58;;;;;;;11.60;77.79;101059.31;5074059;28;20016;-86
2023/04/05 08:56:24;;;;;;;3.78;1.92;;;;;;;11.60;78.28;101065.44;5074118;28;20051;-86
2023/04/05 08:59:06;;;;;;;6.07;2.08;;;;;;;11.55;78.64;101061.66;5092221;28;20077;-85
2023/04/05 09:01:36;;;;;;;2.70;1.63;;;;;;;11.58;78.86;101064.44;5079371;28;20024;-85
2023/04/05 09:04:08;;;;;;;5.10;2.15;;;;;;;11.32;79.03;101015.94;5074370;28;20020;-85
2023/04/05 09:06:37;;;;;;;5.63;2.35;;;;;;;11.32;80.20;101023.78;5056781;28;20504;-85
2023/04/05 09:09:07;;;;;;;3.85;2.10;;;;;;;11.56;79.44;101060.84;5073932;28;20020;-85
2023/04/05 09:11:37;;;;;;;6.40;2.10;;;;;;;11.68;78.99;101076.28;5090170;28;20016;-85
2023/04/05 09:14:03;;;;;;;8.40;2.35;;;;;;;11.59;78.68;101071.47;5053895;28;20051;-85
2023/04/05 09:16:31;;;;;;;6.55;2.45;;;;;;;11.67;79.08;101069.28;5090246;28;20499;-86
2023/04/05 09:18:57;;;;;;;7.13;2.70;;;;;;;11.49;78.95;101047.34;5073993;28;20028;-86
2023/04/05 09:21:22;;;;;;;6.95;2.58;;;;;;;11.27;80.42;101019.13;5091149;28;20469;-86
2023/04/05 09:23:55;;;;;;;5.88;2.30;;;;;;;11.61;79.20;101074.16;5073790;28;20439;-86
2023/04/05 09:26:24;;;;;;;6.22;2.72;;;;;;;11.38;79.56;101038.91;5073648;28;20486;-85
2023/04/05 09:28:50;;;;;;;5.15;2.88;;;;;;;11.62;79.75;101073.38;5073167;28;20024;-88
2023/04/05 09:31:32;;;;;;;11.35;2.70;;;;;;;11.69;79.72;101078.09;5071269;28;20036;-88
2023/04/05 09:34:01;;;;;;;5.00;2.50;;;;;;;11.53;79.80;101054.53;5089147;28;20032;-86
2023/04/05 09:36:27;;;;;;;5.93;2.88;;;;;;;11.53;79.41;101055.44;5073989;28;20031;-86
2023/04/05 09:38:53;;;;;;;4.63;2.42;;;;;;;11.64;79.07;101065.56;5073443;28;20508;-87
2023/04/05 09:41:18;;;;;;;4.15;2.58;;;;;;;11.38;80.39;101024.09;5089504;28;20039;-87
2023/04/05 09:43:44;;;;;;;5.43;2.75;;;;;;;11.55;79.06;101058.13;5089756;28;20035;-89
2023/04/05 09:46:36;;;;;;;4.95;2.70;;;;;;;11.70;80.03;101082.50;5072126;28;20031;-86
2023/04/05 09:49:02;;;;;;;6.28;3.10;;;;;;;11.55;80.34;101055.53;5070641;28;20028;-86
2023/04/05 09:51:35;;;;;;;;;;;;;;;11.66;80.99;101091.00;5073083;28;20051;-87
2023/04/05 09:54:08;;;;;;;5.68;2.60;;;;;;;11.68;80.20;101085.84;5088810;28;19930;-87
2023/04/05 09:56:38;;;;;;;4.07;2.80;;;;;;;11.55;80.22;101063.38;5071557;28;20032;-88
2023/04/05 09:59:10;;;;;;;5.97;2.72;;;;;;;11.73;79.60;101097.50;5060966;28;20031;-88
2023/04/05 10:01:42;;;;;;;5.55;2.80;;;;;;;11.65;79.65;101081.38;5072386;28;20111;-88
2023/04/05 10:04:08;;;;;;;5.10;2.85;;;;;;;11.55;79.73;101056.41;5090117;28;20028;-88
2023/04/05 10:06:39;;;;;;;9.25;3.15;;;;;;;11.67;80.08;101068.38;5089539;28;20612;-87
2023/04/05 10:09:06;;;;;;;9.10;4.03;;;;;;;11.56;81.33;101083.50;5050716;28;20032;-89
2023/04/05 10:11:37;;;;;;;5.47;3.30;;;;;;;11.61;80.78;101072.44;5068912;28;20028;-91
2023/04/05 10:14:06;;;;;;;6.82;3.40;;;;;;;11.51;80.82;101061.41;5058472;28;20103;-90
2023/04/05 10:16:34;;;;;;;6.32;3.25;;;;;;;11.73;80.38;101087.91;5084948;28;20032;-86
2023/04/05 10:19:04;;;;;;;6.60;3.65;;;;;;;11.64;80.32;101078.66;5055326;28;20641;-87
2023/04/05 10:21:33;;;;;;;3.88;3.20;;;;;;;11.56;79.90;101071.31;5060711;28;20024;-86
2023/04/05 10:24:17;;;;;;;7.18;3.05;;;;;;;11.30;80.13;101020.19;5070492;28;20027;-86
2023/04/05 10:27:00;;;;;;;6.35;3.40;;;;;;;11.77;80.00;101102.06;5068083;28;20482;-87
2023/04/05 10:29:37;;;;;;;7.68;3.38;;;;;;;11.73;80.42;101089.66;5082534;28;20023;-87
2023/04/05 10:32:41;;;;;;;4.82;3.13;;;;;;;11.77;80.75;101099.47;5070564;28;20024;-87
2023/04/05 10:35:16;;;;;;;6.18;3.22;;;;;;;11.67;80.82;101086.69;5059966;28;20035;-86
2023/04/05 10:38:20;;;;;;;7.60;3.65;;;;;;;11.71;80.43;101093.91;5080505;28;20102;-88
2023/04/05 10:40:48;;;;;;;4.90;3.30;;;;;;;11.58;80.66;101077.53;5094754;28;20545;-87
2023/04/05 10:43:20;;;;;;;5.90;3.72;;;;;;;11.67;81.44;101105.00;5093644;28;20686;-89
2023/04/05 10:45:48;;;;;;;7.90;4.05;;;;;;;11.73;81.69;101110.56;5076468;28;20095;-87
2023/04/05 10:48:50;;;;;;;7.00;4.10;;;;;;;11.71;80.64;101102.63;5094746;28;20024;-87
2023/04/05 10:51:16;;;;;;;6.90;3.70;;;;;;;11.61;80.50;101079.41;5083053;28;20017;-87
2023/04/05 10:53:43;;;;;;;6.07;4.07;;;;;;;11.71;80.88;101097.41;5094585;28;20027;-87
2023/04/05 10:56:08;;;;;;;;;;;;;;;11.67;81.37;101108.50;5076997;28;20028;-87
2023/04/05 10:58:35;;;;;;;6.75;3.65;;;;;;;11.49;82.14;101074.38;5076386;28;19965;-86
2023/04/05 11:01:02;;;;;;;5.30;3.83;;;;;;;11.72;80.89;101112.25;5094855;28;20031;-87
2023/04/05 11:04:13;;;;;;;5.10;3.60;;;;;;;11.48;81.91;101085.66;5076196;28;20058;-87
2023/04/05 11:06:40;;;;;;;7.30;4.00;;;;;;;11.52;82.61;101087.63;5051501;28;20024;-88
2023/04/05 11:09:14;;;;;;;7.15;3.95;;;;;;;11.67;82.28;101111.13;5059873;28;20021;-88
2023/04/05 11:11:41;;;;;;;5.32;3.95;;;;;;;11.28;83.34;101061.03;5093268;28;20024;-88
2023/04/05 11:14:17;;;;;;;5.00;3.60;;;;;;;11.68;82.59;101106.78;5076768;28;20118;-87
2023/04/05 11:16:46;;;;;;;6.68;4.07;;;;;;;11.72;82.39;101116.59;5081654;28;20016;-88
2023/04/05 11:19:11;;;;;;;5.35;3.80;;;;;;;11.59;82.19;101089.75;5076738;28;20027;-88
2023/04/05 11:21:37;;;;;;;7.95;4.30;;;;;;;11.47;82.42;101060.34;5068428;28;20032;-88
2023/04/05 11:24:05;;;;;;;7.75;3.97;;;;;;;11.56;83.81;101086.09;5069639;28;20405;-88
2023/04/05 11:26:47;;;;;;;8.52;3.95;;;;;;;11.29;84.36;101047.16;5074807;28;20032;-88
2023/04/05 11:29:15;;;;;;;7.78;4.28;;;;;;;11.45;85.23;101075.06;5093140;28;20024;-87
2023/04/05 11:32:05;;;;;;;7.80;4.43;;;;;;;11.68;84.95;101107.69;5074910;28;20032;-87
2023/04/05 11:34:35;;;;;;;7.05;4.15;;;;;;;11.59;84.63;101095.00;5063298;28;20063;-88